Time;durP1;ratioP1;P1;durP2;ratioP2;P2;SDS_P1;SDS_P2;PMS_P1;PMS_P2;Temp;Humidity;BMP_temperature;BMP_pressure;BME280_temperature;BME280_humidity;BME280_pressure;Samples;Min_cycle;Max_cycle;Signal;HPM_P1;HPM_P2
2022/08/29 04:09:22;;;;;;;3.33;3.00;;;;;;;21.61;66.49;101150.28;5064606;28;20771;-83
2022/08/29 04:11:48;;;;;;;1.42;1.33;;;;;;;21.81;66.16;101165.16;5065166;28;20033;-87
2022/08/29 04:14:13;;;;;;;2.75;2.30;;;;;;;22.04;65.21;101166.63;5050335;28;20031;-89
2022/08/29 04:16:39;;;;;;;1.00;0.90;;;;;;;22.17;64.08;101162.91;5065675;28;20028;-85
2022/08/29 04:19:04;;;;;;;0.93;0.88;;;;;;;22.37;63.73;101177.78;5066133;28;20033;-84
2022/08/29 04:21:30;;;;;;;2.10;1.90;;;;;;;22.28;63.92;101162.78;5048220;28;20400;-90
2022/08/29 04:23:56;;;;;;;2.45;2.25;;;;;;;22.55;62.68;101186.66;5062362;28;20029;-92
2022/08/29 04:26:22;;;;;;;4.28;3.22;;;;;;;22.61;61.95;101185.25;5034218;28;20028;-87
2022/08/29 04:28:47;;;;;;;3.17;2.65;;;;;;;22.75;61.70;101198.03;5067615;28;20029;-84
2022/08/29 04:31:18;;;;;;;4.90;1.88;;;;;;;22.82;61.54;101203.59;5066111;28;20077;-94
2022/08/29 04:33:45;;;;;;;2.17;2.00;;;;;;;22.81;61.91;101196.63;5056237;28;20025;-94
2022/08/29 04:36:11;;;;;;;2.70;1.67;;;;;;;22.78;62.24;101202.19;5068379;28;20548;-94
2022/08/29 04:38:36;;;;;;;1.85;1.70;;;;;;;22.73;62.44;101196.53;5032129;28;20059;-91
2022/08/29 04:41:09;;;;;;;1.92;1.73;;;;;;;22.68;62.53;101202.19;5031392;28;20033;-91
2022/08/29 04:43:35;;;;;;;2.35;2.15;;;;;;;22.75;62.36;101208.59;5033848;28;20025;-86
2022/08/29 04:46:00;;;;;;;2.85;2.22;;;;;;;22.71;62.14;101201.06;5047048;28;20048;-92
2022/08/29 04:48:26;;;;;;;4.15;3.35;;;;;;;22.83;62.08;101216.63;5030899;28;20123;-90
2022/08/29 04:50:56;;;;;;;3.40;3.10;;;;;;;22.83;62.06;101210.53;5047040;28;20028;-86
2022/08/29 04:53:22;;;;;;;2.25;2.03;;;;;;;22.93;61.89;101223.75;5036088;28;20045;-92
2022/08/29 04:55:56;;;;;;;3.88;3.05;;;;;;;22.88;61.88;101218.88;5034945;28;20481;-95
2022/08/29 04:58:23;;;;;;;15.57;13.75;;;;;;;22.92;61.85;101220.28;5074004;28;20033;-93
2022/08/29 05:00:49;;;;;;;5.22;4.15;;;;;;;22.94;62.19;101218.31;5048688;28;20036;-90
2022/08/29 05:03:14;;;;;;;2.33;1.90;;;;;;;23.04;61.86;101224.41;5031908;28;20166;-88
2022/08/29 05:05:40;;;;;;;2.33;1.85;;;;;;;23.12;61.90;101224.56;5048078;28;20043;-89
2022/08/29 05:08:05;;;;;;;4.15;2.80;;;;;;;23.07;62.23;101224.13;5049015;28;20049;-92
2022/08/29 05:10:34;;;;;;;2.97;2.58;;;;;;;23.14;62.13;101216.50;5034228;28;20021;-95
2022/08/29 05:13:00;;;;;;;3.13;2.65;;;;;;;23.27;62.99;101218.81;5050485;28;20021;-92
2022/08/29 05:15:37;;;;;;;2.58;2.25;;;;;;;23.28;60.92;101188.78;5064423;28;20024;-94
2022/08/29 05:18:02;;;;;;;3.47;2.38;;;;;;;23.42;61.28;101222.69;5052967;28;20095;-93
2022/08/29 05:20:28;;;;;;;3.47;3.17;;;;;;;23.43;61.39;101229.63;5044253;28;20029;-93
2022/08/29 05:22:54;;;;;;;3.35;2.22;;;;;;;23.51;61.47;101237.66;5029214;28;20030;-90
2022/08/29 05:25:20;;;;;;;3.00;2.38;;;;;;;23.51;60.92;101226.25;5034836;28;20409;-95
2022/08/29 05:27:51;;;;;;;2.17;1.77;;;;;;;23.57;61.23;101237.06;5029310;28;20040;-96
2022/08/29 05:30:17;;;;;;;3.85;3.38;;;;;;;23.64;61.01;101243.47;5062124;28;20059;-94
2022/08/29 05:32:43;;;;;;;4.85;3.00;;;;;;;23.70;61.18;101242.91;5020704;28;20041;-90
2022/08/29 05:35:08;;;;;;;3.65;3.15;;;;;;;23.87;60.71;101243.91;5010205;28;20044;-91
2022/08/29 05:37:34;;;;;;;6.53;5.00;;;;;;;23.93;60.97;101242.53;5035179;28;20028;-91
2022/08/29 05:40:00;;;;;;;7.78;4.38;;;;;;;24.09;61.03;101239.22;5045539;28;20443;-95
2022/08/29 05:42:26;;;;;;;4.22;3.50;;;;;;;24.20;60.84;101239.03;5060862;28;20029;-93
2022/08/29 05:44:52;;;;;;;3.35;2.80;;;;;;;24.36;59.81;101238.38;5036088;28;20025;-89
2022/08/29 05:47:18;;;;;;;4.13;2.97;;;;;;;24.49;59.42;101250.28;5042273;28;20516;-90
2022/08/29 05:49:44;;;;;;;4.13;2.45;;;;;;;24.59;59.66;101244.94;5061393;28;20036;-96
2022/08/29 05:52:10;;;;;;;3.45;2.60;;;;;;;24.49;59.15;101233.59;5026557;28;20021;-86
2022/08/29 05:54:37;;;;;;;3.13;2.47;;;;;;;24.60;59.16;101238.66;5062604;28;20072;-95
2022/08/29 05:57:04;;;;;;;4.72;3.03;;;;;;;24.52;58.94;101217.41;5035492;28;20601;-93
2022/08/29 05:59:29;;;;;;;3.35;2.78;;;;;;;24.73;58.66;101239.09;5062933;28;20112;-94
2022/08/29 06:01:55;;;;;;;3.42;2.53;;;;;;;24.91;58.71;101240.91;5038835;28;20107;-91
2022/08/29 06:04:20;;;;;;;5.07;3.85;;;;;;;25.06;58.79;101240.19;5033880;28;20048;-89
2022/08/29 06:06:46;;;;;;;3.70;3.20;;;;;;;25.14;58.71;101244.72;5062310;28;20466;-92
2022/08/29 06:09:11;;;;;;;5.30;3.13;;;;;;;25.22;56.89;101243.97;5036486;28;20053;-87
2022/08/29 06:11:37;;;;;;;3.47;2.72;;;;;;;25.27;55.87;101234.56;5064822;28;20032;-86
2022/08/29 06:14:03;;;;;;;3.58;2.92;;;;;;;25.33;56.18;101233.94;5066526;28;20378;-89
2022/08/29 06:16:29;;;;;;;3.97;2.67;;;;;;;25.45;55.52;101243.28;5043144;28;20035;-88
2022/08/29 06:18:54;;;;;;;4.07;3.38;;;;;;;25.31;55.39;101219.19;5053674;28;20519;-86
2022/08/29 06:21:20;;;;;;;4.05;2.85;;;;;;;25.61;55.12;101247.00;5047967;28;20052;-94
2022/08/29 06:23:46;;;;;;;4.22;2.90;;;;;;;25.68;55.26;101242.75;5041551;28;20024;-89
2022/08/29 06:26:12;;;;;;;3.97;3.08;;;;;;;25.58;54.98;101216.38;5030779;23;20144;-92
2022/08/29 06:28:46;;;;;;;4.65;3.30;;;;;;;25.80;54.77;101230.91;4944584;28;20027;-91
2022/08/29 06:31:17;;;;;;;2.90;2.30;;;;;;;25.75;55.17;101233.19;4938434;29;20035;-93
2022/08/29 06:33:42;;;;;;;4.03;3.47;;;;;;;25.81;55.03;101242.34;4986697;28;20030;-88
2022/08/29 06:36:08;;;;;;;3.55;2.40;;;;;;;25.79;55.46;101234.56;4965438;28;20028;-89
2022/08/29 06:38:34;;;;;;;4.22;3.17;;;;;;;25.85;55.67;101236.53;4977052;28;20044;-89
2022/08/29 06:41:08;;;;;;;7.07;4.35;;;;;;;25.94;55.05;101248.84;4970504;28;20030;-84
2022/08/29 06:43:34;;;;;;;5.20;3.85;;;;;;;26.02;55.25;101251.53;4951444;28;20397;-90
2022/08/29 06:45:59;;;;;;;4.30;2.85;;;;;;;26.00;54.93;101245.56;4937933;29;20038;-93
2022/08/29 06:48:25;;;;;;;3.90;3.42;;;;;;;26.14;54.77;101265.31;4969992;28;20027;-87
2022/08/29 06:50:51;;;;;;;3.88;2.67;;;;;;;26.09;54.44;101250.91;4964412;28;20495;-87
2022/08/29 06:53:17;;;;;;;3.63;3.03;;;;;;;26.25;54.71;101256.22;4953643;29;20087;-89
2022/08/29 06:55:42;;;;;;;3.00;2.50;;;;;;;26.36;54.04;101266.56;4970880;28;20058;-87
2022/08/29 06:58:08;;;;;;;3.20;2.80;;;;;;;26.37;53.60;101262.94;4958674;28;20038;-89
2022/08/29 07:00:33;;;;;;;3.75;2.97;;;;;;;26.26;54.59;101232.22;4970746;28;20521;-82
2022/08/29 07:02:59;;;;;;;3.58;2.38;;;;;;;26.46;54.10;101258.50;4971521;28;20516;-82
2022/08/29 07:05:25;;;;;;;6.45;3.20;;;;;;;26.43;54.25;101261.44;4960164;28;20035;-91
2022/08/29 07:07:50;;;;;;;4.85;3.35;;;;;;;26.43;54.75;101253.50;4954957;28;20031;-89
2022/08/29 07:10:17;;;;;;;3.80;3.20;;;;;;;26.61;53.63;101261.31;4949482;28;20039;-90
2022/08/29 07:12:42;;;;;;;4.10;3.10;;;;;;;26.66;53.29;101254.53;4938150;29;20029;-91
2022/08/29 07:15:08;;;;;;;2.17;1.88;;;;;;;26.81;52.83;101260.81;4938128;29;20027;-93
2022/08/29 07:17:34;;;;;;;3.78;2.95;;;;;;;26.97;50.89;101267.97;4969434;28;20449;-89
2022/08/29 07:19:59;;;;;;;6.07;2.90;;;;;;;27.17;51.41;101267.66;4940223;28;20030;-89
2022/08/29 07:22:25;;;;;;;3.50;2.70;;;;;;;27.29;50.41;101269.81;4945696;28;20492;-85
2022/08/29 07:24:52;;;;;;;3.33;2.35;;;;;;;27.35;50.52;101263.00;4940109;28;20053;-84
2022/08/29 07:27:18;;;;;;;2.47;2.22;;;;;;;27.44;48.91;101254.00;4943786;29;20500;-87
2022/08/29 07:29:44;;;;;;;3.35;2.72;;;;;;;27.55;49.37;101256.31;4953561;28;20174;-90
2022/08/29 07:32:09;;;;;;;2.97;2.40;;;;;;;27.69;47.79;101255.63;4962367;28;20118;-88
2022/08/29 07:34:35;;;;;;;2.42;2.20;;;;;;;27.85;47.69;101261.88;4953555;28;20074;-88
2022/08/29 07:37:02;;;;;;;7.47;2.75;;;;;;;28.14;45.56;101266.56;4965885;28;20478;-89
2022/08/29 07:39:27;;;;;;;5.40;2.25;;;;;;;28.21;45.77;101241.72;4951409;28;20031;-88
2022/08/29 07:41:53;;;;;;;2.53;2.00;;;;;;;28.34;43.51;101246.53;4934104;28;20048;-83
2022/08/29 07:44:18;;;;;;;2.70;2.22;;;;;;;28.48;42.27;101252.91;4954527;28;20030;-90
2022/08/29 07:46:44;;;;;;;2.67;2.05;;;;;;;28.61;41.26;101257.63;4928414;28;20385;-94
2022/08/29 07:49:11;;;;;;;1.52;1.30;;;;;;;28.70;40.70;101262.72;4934983;28;20503;-87
2022/08/29 07:51:37;;;;;;;3.03;2.20;;;;;;;28.74;40.96;101252.56;4949504;28;20034;-85
2022/08/29 07:54:02;;;;;;;3.63;2.88;;;;;;;28.93;41.21;101246.78;4940050;28;20106;-93
2022/08/29 07:56:30;;;;;;;2.33;1.58;;;;;;;29.00;40.94;101245.03;4953555;28;20122;-90
2022/08/29 07:58:55;;;;;;;2.58;1.70;;;;;;;29.07;39.65;101232.66;4953374;28;20027;-88
2022/08/29 08:01:21;;;;;;;2.95;1.90;;;;;;;29.21;39.29;101251.53;4953607;28;20062;-88
2022/08/29 08:03:47;;;;;;;2.92;1.27;;;;;;;29.22;39.99;101247.84;4938494;28;20031;-87
2022/08/29 08:06:12;;;;;;;3.08;1.58;;;;;;;29.26;39.23;101252.63;4954009;28;20532;-88
2022/08/29 08:08:38;;;;;;;3.08;2.25;;;;;;;29.34;39.16;101257.88;4969873;28;20031;-91
2022/08/29 08:11:05;;;;;;;2.05;1.67;;;;;;;29.45;36.70;101251.25;4944808;29;20081;-89
2022/08/29 08:13:30;;;;;;;2.05;1.48;;;;;;;29.46;37.56;101249.41;4966395;28;20027;-90
2022/08/29 08:15:56;;;;;;;1.52;1.08;;;;;;;29.52;36.99;101251.38;4939365;28;20061;-89
2022/08/29 08:18:22;;;;;;;1.70;1.20;;;;;;;29.57;36.91;101247.16;4945887;29;20035;-86
2022/08/29 08:20:47;;;;;;;6.10;5.45;;;;;;;29.61;36.16;101252.97;4942406;29;20247;-82
2022/08/29 08:23:16;;;;;;;2.17;1.50;;;;;;;29.65;35.23;101257.72;4949778;28;20027;-87
2022/08/29 08:25:42;;;;;;;2.10;1.42;;;;;;;29.46;36.02;101257.41;4943333;29;20039;-88
2022/08/29 08:28:08;;;;;;;1.60;0.95;;;;;;;29.46;36.69;101263.56;4938343;28;20031;-93
2022/08/29 08:30:33;;;;;;;1.42;1.00;;;;;;;29.29;35.20;101249.56;4960123;28;20037;-90
2022/08/29 08:32:59;;;;;;;0.75;0.70;;;;;;;29.31;35.89;101260.09;4958805;28;20023;-82
2022/08/29 08:35:25;;;;;;;1.73;1.33;;;;;;;29.14;35.64;101243.41;4952148;28;20157;-86
2022/08/29 08:37:51;;;;;;;1.63;1.27;;;;;;;29.16;35.28;101246.72;4961191;28;20508;-87
2022/08/29 08:40:20;;;;;;;1.20;1.00;;;;;;;29.16;35.59;101252.06;4956919;28;20389;-84
2022/08/29 08:42:45;;;;;;;2.58;1.65;;;;;;;29.22;35.92;101254.00;4926193;28;20039;-90
2022/08/29 08:45:17;;;;;;;2.13;1.55;;;;;;;29.30;36.30;101256.59;4964180;28;20031;-83
2022/08/29 08:47:57;;;;;;;6.40;4.10;;;;;;;29.32;36.28;101251.91;4969113;28;20049;-91
2022/08/29 08:50:56;;;;;;;5.13;2.75;;;;;;;29.31;36.89;101249.44;4949125;29;20031;-90
2022/08/29 08:53:24;;;;;;;6.65;3.20;;;;;;;29.30;36.67;101247.75;4945040;28;20314;-85
2022/08/29 08:55:54;;;;;;;2.15;1.50;;;;;;;29.30;36.93;101243.28;4953373;28;20039;-89
2022/08/29 08:58:20;;;;;;;1.77;1.40;;;;;;;29.36;37.43;101242.53;4941686;28;20530;-86
2022/08/29 09:00:58;;;;;;;2.15;1.20;;;;;;;29.35;36.61;101234.72;4965439;28;20073;-87
2022/08/29 09:03:38;;;;;;;3.95;2.55;;;;;;;29.52;36.31;101238.06;4972429;28;20061;-89
2022/08/29 09:06:30;;;;;;;22.10;17.63;;;;;;;29.50;36.81;101240.06;4958295;28;20082;-86
2022/08/29 09:09:28;;;;;;;2.03;1.77;;;;;;;29.56;36.53;101237.50;4962067;28;20054;-91
2022/08/29 09:11:56;;;;;;;1.55;1.00;;;;;;;29.61;35.77;101229.78;4993502;28;20039;-85
2022/08/29 09:14:35;;;;;;;1.05;0.80;;;;;;;29.78;34.28;101237.56;4972070;28;20030;-85
2022/08/29 09:17:00;;;;;;;2.58;1.40;;;;;;;29.84;33.66;101228.84;4968752;28;20041;-89
2022/08/29 09:19:26;;;;;;;1.45;0.85;;;;;;;29.94;33.33;101232.03;4949644;28;20027;-88
2022/08/29 09:22:14;;;;;;;1.30;1.00;;;;;;;30.07;33.21;101231.38;4939788;29;20114;-85
2022/08/29 09:24:45;;;;;;;1.80;1.17;;;;;;;30.37;32.79;101214.25;4953008;29;20043;-83
2022/08/29 09:27:25;;;;;;;2.38;1.40;;;;;;;30.65;33.05;101206.31;4938681;29;20059;-84
2022/08/29 09:30:06;;;;;;;1.30;1.10;;;;;;;30.88;33.08;101205.28;4937705;29;20031;-82
2022/08/29 09:32:32;;;;;;;1.90;1.50;;;;;;;31.05;33.10;101202.09;4953231;28;20134;-88
2022/08/29 09:34:58;;;;;;;1.45;1.23;;;;;;;31.29;32.12;101208.06;4952676;29;20521;-89
2022/08/29 09:37:32;;;;;;;1.30;0.90;;;;;;;31.36;32.16;101201.72;4957013;29;20007;-93
2022/08/29 09:40:09;;;;;;;1.70;1.10;;;;;;;31.44;33.16;101203.41;4971187;28;20034;-88
2022/08/29 09:42:36;;;;;;;1.90;1.30;;;;;;;31.63;32.88;101204.50;4933908;28;20047;-84
2022/08/29 09:45:14;;;;;;;3.38;1.40;;;;;;;31.77;32.54;101198.25;4971220;28;20031;-86
2022/08/29 09:47:40;;;;;;;4.03;1.60;;;;;;;31.95;31.91;101193.13;4957549;28;20105;-91
2022/08/29 09:50:17;;;;;;;4.13;1.55;;;;;;;32.06;31.78;101205.13;4951748;28;20034;-88
2022/08/29 09:52:51;;;;;;;1.35;1.08;;;;;;;32.15;29.29;101187.84;4979614;28;20479;-86
2022/08/29 09:55:22;;;;;;;1.33;1.10;;;;;;;32.23;28.74;101184.97;4968486;28;20034;-86
2022/08/29 09:57:55;;;;;;;1.55;1.15;;;;;;;32.20;28.91;101174.66;4959557;28;20031;-88
2022/08/29 10:00:27;;;;;;;1.60;1.50;;;;;;;32.32;29.44;101176.78;4947440;28;20036;-89
2022/08/29 10:02:57;;;;;;;1.10;0.98;;;;;;;32.48;28.60;101179.88;4956720;28;20066;-87
2022/08/29 10:05:43;;;;;;;1.48;1.20;;;;;;;32.55;28.56;101169.19;4942605;29;20037;-87
2022/08/29 10:08:27;;;;;;;1.50;1.20;;;;;;;32.50;29.15;101168.94;4938584;29;20536;-83
2022/08/29 10:10:55;;;;;;;1.50;1.08;;;;;;;32.56;28.62;101172.69;4951565;28;20032;-94
2022/08/29 10:13:23;;;;;;;2.08;1.42;;;;;;;32.47;28.35;101164.03;4947183;28;20528;-85
2022/08/29 10:16:00;;;;;;;1.23;0.77;;;;;;;32.46;28.79;101173.09;4936361;29;20035;-84
2022/08/29 10:18:43;;;;;;;1.30;1.00;;;;;;;32.59;28.58;101154.31;4962804;28;20626;-85
2022/08/29 10:21:17;;;;;;;2.45;1.35;;;;;;;32.85;27.99;101168.78;4966912;28;20080;-89
2022/08/29 10:24:19;;;;;;;1.55;1.10;;;;;;;32.79;29.12;101170.38;4967252;28;20030;-85
2022/08/29 10:26:57;;;;;;;1.85;1.30;;;;;;;32.81;28.57;101155.75;4972740;28;20051;-82
2022/08/29 10:29:25;;;;;;;2.25;1.40;;;;;;;32.90;29.02;101160.91;4972474;28;20035;-83
2022/08/29 10:32:20;;;;;;;2.45;1.88;;;;;;;32.91;28.85;101157.19;4972818;28;20510;-86
2022/08/29 10:35:14;;;;;;;1.90;1.30;;;;;;;32.92;27.72;101153.47;4948466;28;20102;-87
2022/08/29 10:37:39;;;;;;;1.88;1.38;;;;;;;32.93;28.02;101165.84;4970450;28;20022;-82
2022/08/29 10:40:12;;;;;;;1.55;1.10;;;;;;;33.03;28.26;101155.50;4972392;28;20073;-82
2022/08/29 10:42:38;;;;;;;1.73;1.20;;;;;;;32.95;28.45;101150.41;4928546;28;20130;-91
2022/08/29 10:45:14;;;;;;;2.05;1.33;;;;;;;32.88;28.65;101154.94;4954297;28;20035;-86
2022/08/29 10:47:39;;;;;;;2.83;1.77;;;;;;;32.61;29.26;101156.78;4954137;28;20031;-84
2022/08/29 10:50:23;;;;;;;1.60;1.30;;;;;;;32.82;29.23;101141.31;4958193;28;20026;-88
2022/08/29 10:53:13;;;;;;;1.58;1.25;;;;;;;32.95;29.38;101151.22;4972182;28;20023;-89
2022/08/29 10:56:02;;;;;;;1.55;1.23;;;;;;;33.01;29.04;101136.16;4956271;28;20059;-94
2022/08/29 10:58:34;;;;;;;2.40;1.60;;;;;;;33.15;29.22;101135.09;4946114;28;20097;-84
2022/08/29 11:01:13;;;;;;;1.90;1.40;;;;;;;33.10;28.97;101118.81;4955900;28;20129;-82
2022/08/29 11:03:57;;;;;;;2.38;1.60;;;;;;;33.07;29.18;101124.59;4943454;28;20027;-85
2022/08/29 11:06:29;;;;;;;3.05;1.60;;;;;;;33.34;28.77;101126.16;4961944;28;20070;-83
2022/08/29 11:09:02;;;;;;;2.60;1.70;;;;;;;33.38;30.09;101124.72;4954845;28;20062;-83
2022/08/29 11:11:28;;;;;;;2.33;2.05;;;;;;;33.37;30.39;101117.72;4969882;28;20081;-87
2022/08/29 11:14:04;;;;;;;1.45;1.15;;;;;;;33.33;30.52;101121.84;4953137;28;20031;-85
2022/08/29 11:16:37;;;;;;;1.13;1.02;;;;;;;33.18;30.45;101112.41;4951593;28;20027;-87
2022/08/29 11:19:18;;;;;;;2.45;1.40;;;;;;;33.33;30.67;101127.19;4941438;29;20034;-87
2022/08/29 11:21:55;;;;;;;2.03;1.48;;;;;;;33.46;31.19;101122.84;4956605;28;20531;-90
2022/08/29 11:24:21;;;;;;;1.63;1.27;;;;;;;33.55;30.88;101124.22;4955667;28;20034;-88
2022/08/29 11:27:31;;;;;;;2.33;1.65;;;;;;;33.72;30.81;101122.66;4949691;28;20067;-89
2022/08/29 11:30:08;;;;;;;1.98;1.48;;;;;;;33.58;30.30;101121.09;4956622;28;20050;-93
2022/08/29 11:32:39;;;;;;;1.60;1.20;;;;;;;33.60;29.79;101124.41;4942184;28;20090;-86
2022/08/29 11:35:37;;;;;;;1.63;1.30;;;;;;;33.60;29.66;101135.13;4951566;28;20122;-88
2022/08/29 11:38:06;;;;;;;1.90;1.30;;;;;;;33.55;29.63;101118.88;4943939;28;20033;-81
2022/08/29 11:40:56;;;;;;;1.10;1.00;;;;;;;33.70;29.89;101131.97;4971039;28;20053;-82
2022/08/29 11:43:24;;;;;;;1.63;1.33;;;;;;;33.80;29.05;101117.06;4971633;28;20030;-91
2022/08/29 11:45:59;;;;;;;2.47;1.45;;;;;;;33.85;29.24;101111.88;4954364;28;20051;-92
2022/08/29 11:48:38;;;;;;;1.60;1.20;;;;;;;34.17;28.68;101111.88;4941710;29;20035;-83
2022/08/29 11:51:30;;;;;;;2.00;1.30;;;;;;;34.35;27.77;101103.88;4933948;28;20142;-83
2022/08/29 11:53:55;;;;;;;1.70;1.27;;;;;;;34.36;27.71;101110.88;4972212;28;20027;-95
2022/08/29 11:56:26;;;;;;;1.65;1.30;;;;;;;34.23;28.43;101100.28;4989590;28;20090;-88
2022/08/29 11:58:53;;;;;;;1.92;1.48;;;;;;;34.03;27.71;101078.97;4954099;28;20113;-89
2022/08/29 12:01:33;;;;;;;1.80;1.13;;;;;;;34.11;28.02;101091.25;4953326;28;20034;-91
2022/08/29 12:04:00;;;;;;;1.48;1.20;;;;;;;34.15;28.23;101087.13;4971323;28;20033;-88
2022/08/29 12:06:55;;;;;;;3.25;2.95;;;;;;;34.02;28.66;101079.16;4953738;28;20054;-87
2022/08/29 12:09:44;;;;;;;3.33;2.45;;;;;;;33.83;30.11;101078.25;4981015;28;20040;-91
2022/08/29 12:12:12;;;;;;;1.60;1.25;;;;;;;33.82;30.21;101071.22;4967172;28;20030;-88
2022/08/29 12:14:44;;;;;;;1.50;1.30;;;;;;;33.85;30.65;101094.94;4968475;28;20109;-86
2022/08/29 12:17:15;;;;;;;1.77;1.58;;;;;;;33.60;31.19;101084.97;4970516;28;20030;-88
2022/08/29 12:19:48;;;;;;;2.60;1.40;;;;;;;33.43;31.38;101078.47;4970998;28;20054;-88
2022/08/29 12:22:51;;;;;;;1.80;1.38;;;;;;;33.44;31.99;101087.34;4969700;28;20034;-90
2022/08/29 12:25:46;;;;;;;1.70;1.30;;;;;;;33.35;31.07;101087.59;4971084;28;20042;-83
2022/08/29 12:28:18;;;;;;;1.90;1.17;;;;;;;33.22;31.65;101095.66;4971089;28;20105;-84
2022/08/29 12:30:57;;;;;;;1.83;1.27;;;;;;;33.10;32.24;101089.31;4973866;28;20133;-90
2022/08/29 12:33:53;;;;;;;1.13;1.00;;;;;;;33.08;31.34;101091.41;4973474;28;20027;-87
2022/08/29 12:36:34;;;;;;;1.73;1.20;;;;;;;32.77;31.22;101084.88;4989781;28;20541;-88
2022/08/29 12:39:29;;;;;;;1.25;0.98;;;;;;;32.59;31.39;101087.38;4974020;28;20022;-86
2022/08/29 12:42:13;;;;;;;1.70;1.20;;;;;;;32.41;32.89;101081.81;4972458;28;20031;-92
2022/08/29 12:44:43;;;;;;;1.30;1.00;;;;;;;32.32;33.00;101091.91;4973922;28;20037;-88
2022/08/29 12:47:30;;;;;;;1.80;1.20;;;;;;;32.10;33.10;101072.53;4957187;28;20058;-82
2022/08/29 12:50:14;;;;;;;4.00;1.00;;;;;;;32.10;33.47;101075.22;4958450;28;20400;-87
2022/08/29 12:52:39;;;;;;;1.70;1.00;;;;;;;31.99;33.29;101081.19;4958013;28;20034;-81
2022/08/29 12:55:25;;;;;;;1.45;1.15;;;;;;;31.89;33.18;101080.75;4968427;28;20030;-89
2022/08/29 12:57:51;;;;;;;2.28;1.15;;;;;;;31.61;33.59;101073.69;4957255;28;20094;-83
2022/08/29 13:00:24;;;;;;;1.48;0.90;;;;;;;31.56;33.63;101080.66;4990703;28;20503;-94
2022/08/29 13:03:02;;;;;;;1.63;0.90;;;;;;;31.63;33.93;101076.97;4974099;28;20035;-82
2022/08/29 13:05:29;;;;;;;1.67;1.10;;;;;;;31.54;34.23;101075.50;4985856;28;20105;-83
2022/08/29 13:08:00;;;;;;;2.30;1.30;;;;;;;31.42;33.96;101053.06;4974371;28;20034;-84
2022/08/29 13:10:25;;;;;;;1.98;1.10;;;;;;;31.42;33.81;101053.06;4956474;28;20033;-86
2022/08/29 13:12:55;;;;;;;1.25;1.00;;;;;;;31.42;32.88;101050.38;4972773;28;20034;-83
2022/08/29 13:15:25;;;;;;;2.92;1.10;;;;;;;31.38;32.80;101059.84;4972542;28;20030;-88
2022/08/29 13:17:51;;;;;;;1.67;1.25;;;;;;;31.26;33.10;101054.22;4973389;28;20484;-83
2022/08/29 13:21:09;;;;;;;2.00;1.45;;;;;;;31.21;33.13;101051.34;4956509;28;20129;-84
2022/08/29 13:23:44;;;;;;;4.13;1.10;;;;;;;31.24;34.48;101055.47;4963963;28;20570;-82
2022/08/29 13:26:11;;;;;;;1.00;0.90;;;;;;;31.28;34.81;101057.56;4956683;28;20086;-86
